createdAt,value
2023-02-13T00:01:03.234Z,102951.59
2023-02-13T00:03:31.153Z,102947.41
2023-02-13T00:05:59.125Z,102947.28
2023-02-13T00:08:27.021Z,102947.66
2023-02-13T00:10:55.344Z,102951.41
2023-02-13T00:13:23.488Z,102951.00
2023-02-13T00:15:59.831Z,102954.31
2023-02-13T00:18:29.101Z,102951.16
2023-02-13T00:20:59.157Z,102957.25
2023-02-13T00:23:27.449Z,102954.78
2023-02-13T00:25:55.270Z,102956.44
2023-02-13T00:28:23.704Z,102960.59
2023-02-13T00:30:51.774Z,102966.34
2023-02-13T00:33:20.825Z,102969.09
2023-02-13T00:35:48.708Z,102953.06
2023-02-13T00:38:16.595Z,102961.81
2023-02-13T00:40:46.426Z,102963.41
2023-02-13T00:43:14.342Z,102969.81
2023-02-13T00:45:43.795Z,102968.34
2023-02-13T00:48:11.696Z,102976.25
2023-02-13T00:50:39.642Z,102971.44
2023-02-13T00:53:07.761Z,102976.25
2023-02-13T00:55:36.021Z,102978.81
2023-02-13T00:58:03.977Z,102974.69
2023-02-13T01:00:32.343Z,102974.75
2023-02-13T01:03:00.437Z,102981.19
2023-02-13T01:05:28.786Z,102977.13
2023-02-13T01:07:56.744Z,102986.94
2023-02-13T01:10:25.438Z,102985.13
2023-02-13T01:12:53.480Z,102970.94
2023-02-13T01:15:21.777Z,102980.66
2023-02-13T01:17:49.830Z,102978.22
2023-02-13T01:20:17.891Z,102983.75
2023-02-13T01:22:46.147Z,102987.25
2023-02-13T01:25:14.058Z,102980.84
2023-02-13T01:27:42.000Z,102976.75
2023-02-13T01:30:14.077Z,102989.34
2023-02-13T01:32:43.473Z,102986.75
2023-02-13T01:35:14.047Z,102986.72
2023-02-13T01:37:42.718Z,102979.66
2023-02-13T01:40:16.045Z,102982.63
2023-02-13T01:42:44.173Z,102983.59
2023-02-13T01:45:26.586Z,102980.38
2023-02-13T01:48:00.303Z,102980.94
2023-02-13T01:50:52.669Z,102972.72
2023-02-13T01:53:24.787Z,102969.66
2023-02-13T01:56:00.171Z,102971.63
2023-02-13T01:58:32.825Z,102966.25
2023-02-13T02:01:02.590Z,102962.84
2023-02-13T02:03:35.074Z,102969.06
2023-02-13T02:06:11.521Z,102971.72
2023-02-13T02:08:39.595Z,102964.38
2023-02-13T02:11:16.670Z,102969.53
2023-02-13T02:13:46.724Z,102969.91
2023-02-13T02:16:15.019Z,102966.09
2023-02-13T02:18:43.016Z,102964.97
2023-02-13T02:21:11.023Z,102967.13
2023-02-13T02:24:13.918Z,102967.28
2023-02-13T02:27:10.010Z,102965.56
2023-02-13T02:29:50.447Z,102959.59
2023-02-13T02:32:31.988Z,102952.06
2023-02-13T02:35:12.988Z,102958.03
2023-02-13T02:38:13.378Z,102958.28
2023-02-13T02:41:05.852Z,102950.41
2023-02-13T02:43:49.191Z,102956.38
2023-02-13T02:46:24.198Z,102953.72
2023-02-13T02:49:34.836Z,102951.97
2023-02-13T02:52:08.463Z,102950.91
2023-02-13T02:55:04.083Z,102951.72
2023-02-13T02:57:57.067Z,102938.09
2023-02-13T03:00:45.539Z,102945.94
2023-02-13T03:03:41.924Z,102942.66
2023-02-13T03:06:19.082Z,102941.78
2023-02-13T03:09:19.214Z,102945.72
2023-02-13T03:12:10.023Z,102940.91
2023-02-13T03:14:38.226Z,102944.69
2023-02-13T03:17:25.177Z,102944.63
2023-02-13T03:20:20.608Z,102947.69
2023-02-13T03:23:09.558Z,102942.72
2023-02-13T03:25:44.290Z,102948.94
2023-02-13T03:28:41.793Z,102945.34
2023-02-13T03:31:12.568Z,102947.44
2023-02-13T03:33:46.294Z,102945.72
2023-02-13T03:36:52.016Z,102949.22
2023-02-13T03:39:36.940Z,102949.31
2023-02-13T03:42:13.291Z,102948.41
2023-02-13T03:44:46.769Z,102941.84
2023-02-13T03:47:15.162Z,102943.81
2023-02-13T03:50:06.726Z,102951.88
2023-02-13T03:52:38.264Z,102951.34
2023-02-13T03:55:37.250Z,102950.41
2023-02-13T03:58:31.591Z,102948.56
2023-02-13T04:01:02.761Z,102955.41
2023-02-13T04:04:04.433Z,102959.00
2023-02-13T04:06:50.299Z,102953.06
2023-02-13T04:09:18.787Z,102958.25
2023-02-13T04:11:52.321Z,102956.47
2023-02-13T04:14:35.014Z,102941.72
2023-02-13T04:17:12.843Z,102953.94
2023-02-13T04:19:41.250Z,102959.31
2023-02-13T04:22:09.070Z,102959.38
2023-02-13T04:24:36.920Z,102955.59
2023-02-13T04:27:04.890Z,102951.78
2023-02-13T04:29:32.609Z,102958.41
2023-02-13T04:32:00.319Z,102951.94
2023-02-13T04:34:28.022Z,102952.09
2023-02-13T04:36:55.784Z,102957.97
2023-02-13T04:39:23.433Z,102965.50
2023-02-13T04:41:51.205Z,102959.47
2023-02-13T04:44:18.970Z,102951.97
2023-02-13T04:46:46.754Z,102954.69
2023-02-13T04:49:14.644Z,102970.50
2023-02-13T04:51:42.525Z,102962.66
2023-02-13T04:54:11.633Z,102954.81
2023-02-13T04:56:39.352Z,102956.59
2023-02-13T04:59:07.074Z,102952.16
2023-02-13T05:01:34.860Z,102963.41
2023-02-13T05:04:02.740Z,102955.50
2023-02-13T05:06:30.553Z,102964.44
2023-02-13T05:08:58.273Z,102974.91
2023-02-13T05:11:26.003Z,102964.53
2023-02-13T05:13:53.743Z,102971.75
2023-02-13T05:16:21.516Z,102969.81
2023-02-13T05:18:49.694Z,102966.22
2023-02-13T05:21:35.963Z,102976.09
2023-02-13T05:24:03.757Z,102982.31
2023-02-13T05:26:31.532Z,102976.22
2023-02-13T05:29:17.655Z,102971.50
2023-02-13T05:31:54.571Z,102967.97
2023-02-13T05:34:24.847Z,102977.66
2023-02-13T05:36:52.826Z,102983.63
2023-02-13T05:39:21.331Z,102980.47
2023-02-13T05:41:49.766Z,102983.19
2023-02-13T05:44:17.777Z,102985.94
2023-02-13T05:46:45.893Z,102989.56
2023-02-13T05:49:15.500Z,102998.28
2023-02-13T05:51:43.477Z,103000.28
2023-02-13T05:54:11.240Z,102993.09
2023-02-13T05:56:38.943Z,103001.03
2023-02-13T05:59:06.643Z,103000.66
2023-02-13T06:01:34.732Z,103004.03
2023-02-13T06:04:03.949Z,103013.50
2023-02-13T06:06:31.877Z,103011.09
2023-02-13T06:08:59.570Z,103005.38
2023-02-13T06:11:27.453Z,103004.75
2023-02-13T06:13:55.158Z,103005.63
2023-02-13T06:16:23.166Z,103021.44
2023-02-13T06:18:50.913Z,103024.94
2023-02-13T06:21:18.713Z,103021.53
2023-02-13T06:23:46.510Z,103025.09
2023-02-13T06:26:14.527Z,103032.44
2023-02-13T06:28:42.329Z,103033.34
2023-02-13T06:31:10.469Z,103040.31
2023-02-13T06:33:38.411Z,103041.47
2023-02-13T06:36:06.561Z,103036.31
2023-02-13T06:38:34.282Z,103034.50
2023-02-13T06:41:02.685Z,103037.88
2023-02-13T06:43:30.937Z,103044.88
2023-02-13T06:45:59.051Z,103041.41
2023-02-13T06:48:27.133Z,103029.88
2023-02-13T06:50:55.300Z,103036.69
2023-02-13T06:53:25.180Z,103045.63
2023-02-13T06:55:54.022Z,103041.81
2023-02-13T06:58:24.148Z,103042.72
2023-02-13T07:00:52.986Z,103050.47
2023-02-13T07:03:21.439Z,103051.03
2023-02-13T07:05:52.160Z,103049.22
2023-02-13T07:08:20.147Z,103046.69
2023-02-13T07:10:48.123Z,103049.91
2023-02-13T07:13:16.264Z,103054.03
2023-02-13T07:15:44.382Z,103059.75
2023-02-13T07:18:12.403Z,103054.59
2023-02-13T07:20:40.447Z,103054.34
2023-02-13T07:23:08.481Z,103057.06
2023-02-13T07:25:36.519Z,103063.13
2023-02-13T07:28:06.156Z,103053.13
2023-02-13T07:30:35.235Z,103060.81
2023-02-13T07:33:05.224Z,103058.88
2023-02-13T07:35:33.897Z,103053.31
2023-02-13T07:38:02.245Z,103056.69
2023-02-13T07:40:30.334Z,103060.81
2023-02-13T07:43:01.258Z,103062.94
2023-02-13T07:45:29.235Z,103062.03
2023-02-13T07:47:57.649Z,103054.25
2023-02-13T07:50:25.752Z,103046.03
2023-02-13T07:52:59.693Z,103043.94
2023-02-13T07:55:28.978Z,103042.75
2023-02-13T07:57:57.389Z,103053.50
2023-02-13T08:00:25.454Z,103051.44
2023-02-13T08:02:53.338Z,103042.47
2023-02-13T08:05:21.185Z,103033.69
2023-02-13T08:07:49.088Z,103034.22
2023-02-13T08:10:35.350Z,103033.31
2023-02-13T08:13:03.884Z,103019.69
2023-02-13T08:15:31.839Z,103019.91
2023-02-13T08:17:59.948Z,103031.59
2023-02-13T08:20:28.048Z,103030.88
2023-02-13T08:23:03.426Z,103020.88
2023-02-13T08:25:31.395Z,103024.41
2023-02-13T08:28:00.794Z,103009.28
2023-02-13T08:30:29.321Z,103018.78
2023-02-13T08:32:57.306Z,103021.53
2023-02-13T08:35:27.606Z,103025.53
2023-02-13T08:37:56.168Z,103030.31
2023-02-13T08:40:25.451Z,103023.94
2023-02-13T08:43:01.310Z,103032.81
2023-02-13T08:45:30.059Z,103037.19
2023-02-13T08:48:01.456Z,103036.13
2023-02-13T08:50:29.544Z,103034.28
2023-02-13T08:52:58.619Z,103030.13
2023-02-13T08:55:28.494Z,103035.13
2023-02-13T08:57:56.485Z,103029.88
2023-02-13T09:00:24.511Z,103037.78
2023-02-13T09:02:52.543Z,103027.09
2023-02-13T09:05:20.739Z,103024.91
2023-02-13T09:07:48.686Z,103028.03
2023-02-13T09:10:16.590Z,103025.66
2023-02-13T09:12:44.517Z,103018.59
2023-02-13T09:15:12.485Z,103012.91
2023-02-13T09:17:40.439Z,103022.91
2023-02-13T09:20:08.941Z,103021.13
2023-02-13T09:22:36.871Z,103016.81
2023-02-13T09:25:05.116Z,103019.38
2023-02-13T09:27:34.939Z,103015.16
2023-02-13T09:30:03.008Z,103014.44
2023-02-13T09:32:31.320Z,103016.25
2023-02-13T09:34:59.370Z,103019.78
2023-02-13T09:37:27.898Z,103028.56
2023-02-13T09:39:55.884Z,103006.78
2023-02-13T09:42:29.246Z,103017.41
2023-02-13T09:45:03.782Z,103010.59
2023-02-13T09:47:34.239Z,103017.63
2023-02-13T09:50:25.713Z,103018.50
2023-02-13T09:52:55.930Z,103015.81
2023-02-13T09:55:30.121Z,103022.44
2023-02-13T09:58:00.912Z,103014.59
2023-02-13T10:00:40.437Z,103014.84
2023-02-13T10:03:29.605Z,103010.75
2023-02-13T10:06:29.759Z,103009.34
2023-02-13T10:09:00.219Z,103014.34
2023-02-13T10:11:48.892Z,102998.22
2023-02-13T10:14:27.658Z,103008.69
2023-02-13T10:17:11.952Z,103009.38
2023-02-13T10:19:57.559Z,103005.16
2023-02-13T10:22:36.599Z,103002.59
2023-02-13T10:25:16.489Z,103006.47
2023-02-13T10:27:50.009Z,103002.28
2023-02-13T10:30:32.748Z,102998.63
2023-02-13T10:33:20.044Z,102986.88
2023-02-13T10:36:12.861Z,102986.41
2023-02-13T10:38:45.550Z,102981.22
2023-02-13T10:41:35.545Z,102965.50
2023-02-13T10:44:21.994Z,102966.53
2023-02-13T10:47:21.912Z,102966.06
2023-02-13T10:49:58.400Z,102954.94
2023-02-13T10:52:32.730Z,102948.00
2023-02-13T10:55:12.210Z,102956.13
2023-02-13T10:57:55.002Z,102956.41
2023-02-13T11:00:47.993Z,102943.13
2023-02-13T11:03:30.148Z,102951.88
2023-02-13T11:06:01.928Z,102941.25
2023-02-13T11:08:45.990Z,102943.66
2023-02-13T11:11:34.127Z,102933.69
2023-02-13T11:14:12.207Z,102929.09
2023-02-13T11:17:02.453Z,102927.59
2023-02-13T11:19:47.963Z,102926.75
2023-02-13T11:22:32.551Z,102922.53
2023-02-13T11:25:06.548Z,102915.28
2023-02-13T11:27:37.883Z,102924.84
2023-02-13T11:30:35.589Z,102912.09
2023-02-13T11:33:22.505Z,102901.94
2023-02-13T11:36:03.822Z,102916.56
2023-02-13T11:38:31.704Z,102907.50
2023-02-13T11:41:19.717Z,102907.44
2023-02-13T11:44:01.567Z,102900.31
2023-02-13T11:46:31.597Z,102903.84
2023-02-13T11:49:07.771Z,102901.44
2023-02-13T11:51:46.402Z,102887.31
2023-02-13T11:54:37.046Z,102888.56
2023-02-13T11:57:30.006Z,102892.75
2023-02-13T11:59:59.477Z,102891.06
2023-02-13T12:02:50.298Z,102882.81
2023-02-13T12:05:22.311Z,102886.25
2023-02-13T12:07:50.708Z,102886.19
2023-02-13T12:10:23.586Z,102887.84
2023-02-13T12:13:17.572Z,102876.44
2023-02-13T12:15:49.674Z,102877.63
2023-02-13T12:18:49.584Z,102885.44
2023-02-13T12:21:35.913Z,102875.91
2023-02-13T12:24:27.760Z,102872.72
2023-02-13T12:27:07.759Z,102863.72
2023-02-13T12:29:47.369Z,102862.69
2023-02-13T12:32:20.272Z,102855.84
2023-02-13T12:35:14.981Z,102849.03
2023-02-13T12:37:55.080Z,102848.09
2023-02-13T12:40:43.941Z,102830.50
2023-02-13T12:43:17.668Z,102836.97
2023-02-13T12:46:06.762Z,102841.56
2023-02-13T12:49:02.339Z,102837.78
2023-02-13T12:52:07.596Z,102827.16
2023-02-13T12:54:38.397Z,102832.38
2023-02-13T12:57:30.417Z,102828.59
2023-02-13T13:00:11.083Z,102825.59
2023-02-13T13:02:54.030Z,102824.94
2023-02-13T13:05:43.388Z,102823.72
2023-02-13T13:08:50.540Z,102817.88
2023-02-13T13:11:40.459Z,102810.91
2023-02-13T13:14:21.150Z,102809.66
2023-02-13T13:16:57.877Z,102804.50
2023-02-13T13:19:34.710Z,102804.44
2023-02-13T13:22:09.302Z,102806.09
2023-02-13T13:25:06.160Z,102810.31
2023-02-13T13:27:39.244Z,102816.41
2023-02-13T13:30:20.493Z,102802.00
2023-02-13T13:33:08.689Z,102789.94
2023-02-13T13:35:41.720Z,102801.75
2023-02-13T13:38:37.134Z,102790.22
2023-02-13T13:41:18.342Z,102792.19
2023-02-13T13:44:04.265Z,102793.38
2023-02-13T13:46:53.491Z,102793.25
2023-02-13T13:49:24.447Z,102794.31
2023-02-13T13:51:52.244Z,102787.88
2023-02-13T13:54:25.843Z,102784.56
2023-02-13T13:56:53.617Z,102785.34
2023-02-13T13:59:49.159Z,102777.19
2023-02-13T14:02:19.875Z,102778.59
2023-02-13T14:05:12.591Z,102778.88
2023-02-13T14:07:42.258Z,102778.25
2023-02-13T14:10:32.792Z,102783.66
2023-02-13T14:13:03.347Z,102782.09
2023-02-13T14:15:39.852Z,102769.25
2023-02-13T14:18:19.080Z,102772.28
2023-02-13T14:20:50.832Z,102776.84
2023-02-13T14:23:18.679Z,102760.41
2023-02-13T14:25:47.853Z,102759.19
2023-02-13T14:28:27.625Z,102764.22
2023-02-13T14:31:07.677Z,102760.09
2023-02-13T14:33:35.821Z,102760.75
2023-02-13T14:36:09.539Z,102767.00
2023-02-13T14:38:37.658Z,102773.06
2023-02-13T14:41:07.514Z,102762.34
2023-02-13T14:43:39.531Z,102766.75
2023-02-13T14:46:12.144Z,102755.19
2023-02-13T14:48:43.437Z,102764.31
2023-02-13T14:51:28.904Z,102768.06
2023-02-13T14:54:20.439Z,102757.94
2023-02-13T14:56:50.852Z,102761.06
2023-02-13T14:59:24.270Z,102749.22
2023-02-13T15:02:09.633Z,102753.47
2023-02-13T15:04:42.481Z,102756.94
2023-02-13T15:07:21.650Z,102758.59
2023-02-13T15:09:56.428Z,102754.84
2023-02-13T15:12:27.144Z,102752.25
2023-02-13T15:14:54.982Z,102756.88
2023-02-13T15:17:38.622Z,102752.78
2023-02-13T15:20:25.106Z,102752.59
2023-02-13T15:22:53.870Z,102762.31
2023-02-13T15:25:39.299Z,102756.00
2023-02-13T15:28:15.520Z,102759.38
2023-02-13T15:31:04.375Z,102753.72
2023-02-13T15:33:47.375Z,102754.25
2023-02-13T15:36:27.359Z,102744.22
2023-02-13T15:39:09.712Z,102745.91
2023-02-13T15:41:44.907Z,102754.25
2023-02-13T15:44:32.462Z,102753.13
2023-02-13T15:47:18.178Z,102748.44
2023-02-13T15:49:48.047Z,102750.28
2023-02-13T15:52:25.676Z,102755.00
2023-02-13T15:54:55.552Z,102754.03
2023-02-13T15:57:25.794Z,102757.44
2023-02-13T15:59:55.618Z,102765.41
2023-02-13T16:02:34.244Z,102756.03
2023-02-13T16:05:02.954Z,102755.56
2023-02-13T16:07:30.792Z,102753.22
2023-02-13T16:10:37.520Z,102760.75
2023-02-13T16:13:08.007Z,102755.63
2023-02-13T16:15:37.667Z,102757.53
2023-02-13T16:18:12.031Z,102752.69
2023-02-13T16:20:39.901Z,102753.63
2023-02-13T16:23:17.264Z,102764.00
2023-02-13T16:25:47.708Z,102761.13
2023-02-13T16:28:25.829Z,102769.59
2023-02-13T16:30:59.533Z,102757.81
2023-02-13T16:33:34.112Z,102763.41
2023-02-13T16:36:30.860Z,102768.13
2023-02-13T16:39:10.545Z,102769.31
2023-02-13T16:41:38.292Z,102770.16
2023-02-13T16:44:06.345Z,102771.13
2023-02-13T16:46:42.181Z,102768.25
2023-02-13T16:49:09.864Z,102786.41
2023-02-13T16:51:42.594Z,102777.25
2023-02-13T16:54:28.173Z,102782.88
2023-02-13T16:57:14.256Z,102785.56
2023-02-13T16:59:47.877Z,102785.94
2023-02-13T17:02:27.611Z,102788.88
2023-02-13T17:05:16.774Z,102790.91
2023-02-13T17:07:51.166Z,102797.50
2023-02-13T17:10:23.705Z,102794.00
2023-02-13T17:12:51.752Z,102797.28
2023-02-13T17:15:25.592Z,102799.16
2023-02-13T17:17:54.090Z,102799.72
2023-02-13T17:20:29.303Z,102790.38
2023-02-13T17:22:59.362Z,102801.41
2023-02-13T17:25:34.204Z,102806.00
2023-02-13T17:28:15.386Z,102801.00
2023-02-13T17:30:44.927Z,102801.84
2023-02-13T17:33:16.812Z,102808.34
2023-02-13T17:35:44.635Z,102801.81
2023-02-13T17:38:12.383Z,102810.53
2023-02-13T17:40:42.661Z,102808.88
2023-02-13T17:43:12.940Z,102811.00
2023-02-13T17:45:41.183Z,102812.44
2023-02-13T17:48:09.424Z,102810.53
2023-02-13T17:50:38.338Z,102811.59
2023-02-13T17:53:22.259Z,102819.50
2023-02-13T17:55:50.419Z,102808.56
2023-02-13T17:58:18.197Z,102816.56
2023-02-13T18:00:46.108Z,102819.59
2023-02-13T18:03:14.007Z,102819.81
2023-02-13T18:05:42.297Z,102828.66
2023-02-13T18:08:10.249Z,102822.56
2023-02-13T18:10:39.742Z,102813.78
2023-02-13T18:13:07.858Z,102815.84
2023-02-13T18:15:40.676Z,102831.47
2023-02-13T18:18:08.992Z,102823.47
2023-02-13T18:20:36.937Z,102829.09
2023-02-13T18:23:06.667Z,102825.78
2023-02-13T18:25:34.978Z,102834.84
2023-02-13T18:28:03.733Z,102832.75
2023-02-13T18:30:31.698Z,102826.75
2023-02-13T18:32:59.535Z,102821.06
2023-02-13T18:35:27.558Z,102825.53
2023-02-13T18:37:55.297Z,102829.53
2023-02-13T18:40:23.112Z,102826.50
2023-02-13T18:42:52.486Z,102822.78
2023-02-13T18:45:20.302Z,102823.84
2023-02-13T18:47:48.849Z,102824.22
2023-02-13T18:50:16.856Z,102838.66
2023-02-13T18:52:44.897Z,102832.09
2023-02-13T18:55:12.846Z,102838.44
2023-02-13T18:57:43.727Z,102832.53
2023-02-13T19:00:14.435Z,102841.91
2023-02-13T19:02:42.390Z,102841.16
2023-02-13T19:05:10.320Z,102844.44
2023-02-13T19:07:38.283Z,102843.91
2023-02-13T19:10:07.256Z,102846.19
2023-02-13T19:12:35.380Z,102847.72
2023-02-13T19:15:03.971Z,102845.66
2023-02-13T19:17:32.061Z,102846.19
2023-02-13T19:20:00.053Z,102847.25
2023-02-13T19:22:28.006Z,102844.06
2023-02-13T19:24:56.100Z,102845.25
2023-02-13T19:27:24.330Z,102847.66
2023-02-13T19:29:52.290Z,102845.53
2023-02-13T19:32:20.194Z,102850.31
2023-02-13T19:34:48.291Z,102847.34
2023-02-13T19:37:16.325Z,102850.69
2023-02-13T19:39:44.212Z,102854.19
2023-02-13T19:42:12.123Z,102855.88
2023-02-13T19:44:40.030Z,102858.41
2023-02-13T19:47:07.855Z,102858.75
2023-02-13T19:49:35.804Z,102854.34
2023-02-13T19:52:04.009Z,102860.31
2023-02-13T19:54:32.404Z,102865.47
2023-02-13T19:57:05.292Z,102865.88
2023-02-13T19:59:34.588Z,102865.66
2023-02-13T20:02:02.593Z,102868.53
2023-02-13T20:04:32.385Z,102866.47
2023-02-13T20:07:00.463Z,102873.47
2023-02-13T20:09:28.412Z,102873.25
2023-02-13T20:11:56.408Z,102874.75
2023-02-13T20:14:24.479Z,102871.56
2023-02-13T20:16:52.557Z,102870.22
2023-02-13T20:19:20.686Z,102875.25
2023-02-13T20:21:48.929Z,102877.78
2023-02-13T20:24:17.259Z,102884.31
2023-02-13T20:26:45.652Z,102890.94
2023-02-13T20:29:13.700Z,102883.47
2023-02-13T20:31:42.020Z,102885.00
2023-02-13T20:34:11.114Z,102885.03
2023-02-13T20:36:39.622Z,102882.72
2023-02-13T20:39:08.624Z,102880.59
2023-02-13T20:41:38.430Z,102892.44
2023-02-13T20:44:12.315Z,102888.91
2023-02-13T20:46:41.564Z,102886.13
2023-02-13T20:49:13.972Z,102888.47
2023-02-13T20:51:43.504Z,102889.53
2023-02-13T20:54:12.952Z,102897.06
2023-02-13T20:56:41.758Z,102890.97
2023-02-13T20:59:11.284Z,102896.00
2023-02-13T21:01:44.302Z,102894.38
2023-02-13T21:04:15.032Z,102896.88
2023-02-13T21:06:44.831Z,102897.50
2023-02-13T21:09:15.011Z,102899.69
2023-02-13T21:11:44.741Z,102891.59
2023-02-13T21:14:14.588Z,102884.72
2023-02-13T21:16:44.181Z,102880.69
2023-02-13T21:19:22.015Z,102882.22
2023-02-13T21:21:51.117Z,102884.09
2023-02-13T21:24:22.367Z,102882.56
2023-02-13T21:26:53.524Z,102880.44
2023-02-13T21:29:21.954Z,102879.00
2023-02-13T21:31:51.089Z,102879.53
2023-02-13T21:34:19.362Z,102868.16
2023-02-13T21:36:48.768Z,102871.63
2023-02-13T21:39:16.813Z,102870.38
2023-02-13T21:41:46.785Z,102871.31
2023-02-13T21:44:17.015Z,102869.69
2023-02-13T21:46:46.196Z,102870.69
2023-02-13T21:49:17.549Z,102868.22
2023-02-13T21:51:45.924Z,102871.09
2023-02-13T21:54:14.762Z,102865.22
2023-02-13T21:56:44.110Z,102871.00
2023-02-13T21:59:16.752Z,102858.44
2023-02-13T22:01:46.836Z,102862.78
2023-02-13T22:04:14.893Z,102856.25
2023-02-13T22:06:42.841Z,102849.03
2023-02-13T22:09:14.165Z,102852.97
2023-02-13T22:11:42.556Z,102859.41
2023-02-13T22:14:17.272Z,102859.81
2023-02-13T22:16:46.479Z,102860.53
2023-02-13T22:19:16.311Z,102857.69
2023-02-13T22:21:45.287Z,102852.25
2023-02-13T22:24:13.341Z,102849.75
2023-02-13T22:26:45.414Z,102849.03
2023-02-13T22:29:16.001Z,102844.53
2023-02-13T22:31:44.282Z,102844.56
2023-02-13T22:34:13.643Z,102839.03
2023-02-13T22:36:42.988Z,102840.88
2023-02-13T22:39:12.107Z,102836.88
2023-02-13T22:41:40.098Z,102840.84
2023-02-13T22:44:08.032Z,102839.13
2023-02-13T22:46:36.033Z,102829.31
2023-02-13T22:49:04.374Z,102838.31
2023-02-13T22:51:34.461Z,102837.06
2023-02-13T22:54:02.875Z,102829.63
2023-02-13T22:56:31.790Z,102840.91
2023-02-13T22:59:00.306Z,102837.06
2023-02-13T23:01:29.117Z,102835.03
2023-02-13T23:03:57.492Z,102830.88
2023-02-13T23:06:25.979Z,102834.84
2023-02-13T23:08:54.004Z,102833.38
2023-02-13T23:11:45.854Z,102826.06
2023-02-13T23:14:14.427Z,102819.97
2023-02-13T23:17:01.931Z,102817.16
2023-02-13T23:19:30.868Z,102821.75
2023-02-13T23:21:59.806Z,102818.41
2023-02-13T23:24:29.572Z,102819.06
2023-02-13T23:26:58.881Z,102820.56
2023-02-13T23:29:27.165Z,102823.50
2023-02-13T23:31:55.367Z,102823.25
2023-02-13T23:34:23.415Z,102827.09
2023-02-13T23:36:51.249Z,102824.50
2023-02-13T23:39:20.193Z,102811.00
2023-02-13T23:41:48.228Z,102806.63
2023-02-13T23:44:16.037Z,102808.63
2023-02-13T23:46:44.034Z,102813.06
2023-02-13T23:49:11.972Z,102809.09
2023-02-13T23:51:40.050Z,102806.47
2023-02-13T23:54:08.136Z,102806.25
2023-02-13T23:56:36.102Z,102801.53
2023-02-13T23:59:04.146Z,102806.34
